sensor_id;sensor_type;location;lat;lon;timestamp;P1;durP1;ratioP1;P2;durP2;ratioP2
7239;SDS011;3661;53.288;10.458;2023-08-20T00:01:45;1999.90;;;999.90;;
7239;SDS011;3661;53.288;10.458;2023-08-20T00:04:18;1999.90;;;999.90;;
7239;SDS011;3661;53.288;10.458;2023-08-20T00:06:52;1999.90;;;999.90;;
7239;SDS011;3661;53.288;10.458;2023-08-20T00:09:24;1999.90;;;999.90;;
7239;SDS011;3661;53.288;10.458;2023-08-20T00:11:57;1999.90;;;999.90;;
7239;SDS011;3661;53.288;10.458;2023-08-20T00:17:23;1999.90;;;999.90;;
7239;SDS011;3661;53.288;10.458;2023-08-20T00:19:59;1999.90;;;999.90;;
7239;SDS011;3661;53.288;10.458;2023-08-20T00:22:33;1999.90;;;999.90;;
7239;SDS011;3661;53.288;10.458;2023-08-20T00:25:06;1999.90;;;999.90;;
7239;SDS011;3661;53.288;10.458;2023-08-20T00:27:39;1999.90;;;999.90;;
7239;SDS011;3661;53.288;10.458;2023-08-20T00:30:11;1999.90;;;999.90;;
7239;SDS011;3661;53.288;10.458;2023-08-20T00:32:44;1999.90;;;999.90;;
7239;SDS011;3661;53.288;10.458;2023-08-20T00:35:20;1999.90;;;999.90;;
7239;SDS011;3661;53.288;10.458;2023-08-20T00:37:52;1999.90;;;999.90;;
7239;SDS011;3661;53.288;10.458;2023-08-20T00:40:25;1999.90;;;999.90;;
7239;SDS011;3661;53.288;10.458;2023-08-20T00:42:57;1999.90;;;999.90;;
7239;SDS011;3661;53.288;10.458;2023-08-20T00:45:31;1999.90;;;999.90;;
7239;SDS011;3661;53.288;10.458;2023-08-20T00:48:05;1999.90;;;999.90;;
7239;SDS011;3661;53.288;10.458;2023-08-20T00:50:39;1999.90;;;999.90;;
7239;SDS011;3661;53.288;10.458;2023-08-20T00:53:11;1996.70;;;999.90;;
7239;SDS011;3661;53.288;10.458;2023-08-20T00:55:45;1999.90;;;999.90;;
7239;SDS011;3661;53.288;10.458;2023-08-20T00:58:18;1994.40;;;999.90;;
7239;SDS011;3661;53.288;10.458;2023-08-20T01:00:53;1999.90;;;999.90;;
7239;SDS011;3661;53.288;10.458;2023-08-20T01:03:26;1992.50;;;999.90;;
7239;SDS011;3661;53.288;10.458;2023-08-20T01:06:01;1999.20;;;999.90;;
7239;SDS011;3661;53.288;10.458;2023-08-20T01:08:44;1993.57;;;999.90;;
7239;SDS011;3661;53.288;10.458;2023-08-20T01:11:21;1984.38;;;999.90;;
7239;SDS011;3661;53.288;10.458;2023-08-20T01:14:00;1983.10;;;999.90;;
7239;SDS011;3661;53.288;10.458;2023-08-20T01:16:33;1971.50;;;999.90;;
7239;SDS011;3661;53.288;10.458;2023-08-20T01:19:05;1987.60;;;999.90;;
7239;SDS011;3661;53.288;10.458;2023-08-20T01:21:44;1985.75;;;999.90;;
7239;SDS011;3661;53.288;10.458;2023-08-20T01:24:31;1995.90;;;999.90;;
7239;SDS011;3661;53.288;10.458;2023-08-20T01:27:19;1983.97;;;999.90;;
7239;SDS011;3661;53.288;10.458;2023-08-20T01:30:01;1981.73;;;999.90;;
7239;SDS011;3661;53.288;10.458;2023-08-20T01:32:34;1991.40;;;999.90;;
7239;SDS011;3661;53.288;10.458;2023-08-20T01:35:12;1985.87;;;999.90;;
7239;SDS011;3661;53.288;10.458;2023-08-20T01:37:47;1959.63;;;999.90;;
7239;SDS011;3661;53.288;10.458;2023-08-20T01:40:19;1960.45;;;999.90;;
7239;SDS011;3661;53.288;10.458;2023-08-20T01:42:52;1981.93;;;999.90;;
7239;SDS011;3661;53.288;10.458;2023-08-20T01:45:25;1969.30;;;999.90;;
7239;SDS011;3661;53.288;10.458;2023-08-20T01:47:58;1957.30;;;999.90;;
7239;SDS011;3661;53.288;10.458;2023-08-20T01:50:30;1972.25;;;999.90;;
7239;SDS011;3661;53.288;10.458;2023-08-20T01:53:06;1960.78;;;999.90;;
7239;SDS011;3661;53.288;10.458;2023-08-20T01:55:39;1956.75;;;999.90;;
7239;SDS011;3661;53.288;10.458;2023-08-20T01:58:12;1963.37;;;999.90;;
7239;SDS011;3661;53.288;10.458;2023-08-20T02:00:46;1954.10;;;999.90;;
7239;SDS011;3661;53.288;10.458;2023-08-20T02:03:19;1943.82;;;999.90;;
7239;SDS011;3661;53.288;10.458;2023-08-20T02:05:51;1970.80;;;999.90;;
7239;SDS011;3661;53.288;10.458;2023-08-20T02:08:28;1948.17;;;999.90;;
7239;SDS011;3661;53.288;10.458;2023-08-20T02:11:01;1946.97;;;999.90;;
7239;SDS011;3661;53.288;10.458;2023-08-20T02:13:34;1954.82;;;999.90;;
7239;SDS011;3661;53.288;10.458;2023-08-20T02:16:09;1930.07;;;999.90;;
7239;SDS011;3661;53.288;10.458;2023-08-20T02:18:42;1929.90;;;999.90;;
7239;SDS011;3661;53.288;10.458;2023-08-20T02:21:15;1930.65;;;999.90;;
7239;SDS011;3661;53.288;10.458;2023-08-20T02:23:48;1947.32;;;999.90;;
7239;SDS011;3661;53.288;10.458;2023-08-20T02:26:21;1916.97;;;999.90;;
7239;SDS011;3661;53.288;10.458;2023-08-20T02:29:01;1919.18;;;999.90;;
7239;SDS011;3661;53.288;10.458;2023-08-20T02:31:37;1943.15;;;999.90;;
7239;SDS011;3661;53.288;10.458;2023-08-20T02:34:11;1917.45;;;999.90;;
7239;SDS011;3661;53.288;10.458;2023-08-20T02:36:43;1915.68;;;999.90;;
7239;SDS011;3661;53.288;10.458;2023-08-20T02:39:20;1934.33;;;999.90;;
7239;SDS011;3661;53.288;10.458;2023-08-20T02:41:56;1908.90;;;999.90;;
7239;SDS011;3661;53.288;10.458;2023-08-20T02:44:42;1899.28;;;999.90;;
7239;SDS011;3661;53.288;10.458;2023-08-20T02:47:26;1923.70;;;999.90;;
7239;SDS011;3661;53.288;10.458;2023-08-20T02:50:16;1897.73;;;999.90;;
7239;SDS011;3661;53.288;10.458;2023-08-20T02:52:56;1910.18;;;999.90;;
7239;SDS011;3661;53.288;10.458;2023-08-20T02:55:42;1909.28;;;999.90;;
7239;SDS011;3661;53.288;10.458;2023-08-20T02:58:42;1917.97;;;999.90;;
7239;SDS011;3661;53.288;10.458;2023-08-20T03:01:18;1909.70;;;999.90;;
7239;SDS011;3661;53.288;10.458;2023-08-20T03:07:49;1907.88;;;999.90;;
7239;SDS011;3661;53.288;10.458;2023-08-20T03:10:39;1912.50;;;999.90;;
7239;SDS011;3661;53.288;10.458;2023-08-20T03:13:30;1906.20;;;999.90;;
7239;SDS011;3661;53.288;10.458;2023-08-20T03:16:37;1909.80;;;999.90;;
7239;SDS011;3661;53.288;10.458;2023-08-20T03:19:29;1907.90;;;999.90;;
7239;SDS011;3661;53.288;10.458;2023-08-20T03:22:11;1890.90;;;999.90;;
7239;SDS011;3661;53.288;10.458;2023-08-20T03:24:52;1905.30;;;999.90;;
7239;SDS011;3661;53.288;10.458;2023-08-20T03:27:31;1885.50;;;999.90;;
7239;SDS011;3661;53.288;10.458;2023-08-20T03:30:06;1889.05;;;999.90;;
7239;SDS011;3661;53.288;10.458;2023-08-20T03:32:52;1876.18;;;999.90;;
7239;SDS011;3661;53.288;10.458;2023-08-20T03:35:25;1896.38;;;999.90;;
7239;SDS011;3661;53.288;10.458;2023-08-20T03:37:58;1879.20;;;999.90;;
7239;SDS011;3661;53.288;10.458;2023-08-20T03:40:35;1868.85;;;999.90;;
7239;SDS011;3661;53.288;10.458;2023-08-20T03:43:10;1882.88;;;999.90;;
7239;SDS011;3661;53.288;10.458;2023-08-20T03:45:49;1878.38;;;999.90;;
7239;SDS011;3661;53.288;10.458;2023-08-20T03:48:23;1871.00;;;999.90;;
7239;SDS011;3661;53.288;10.458;2023-08-20T03:50:55;1878.25;;;999.90;;
7239;SDS011;3661;53.288;10.458;2023-08-20T03:53:30;1878.40;;;999.90;;
7239;SDS011;3661;53.288;10.458;2023-08-20T03:56:06;1878.57;;;999.90;;
7239;SDS011;3661;53.288;10.458;2023-08-20T03:58:38;1870.38;;;999.90;;
7239;SDS011;3661;53.288;10.458;2023-08-20T04:01:11;1878.72;;;999.90;;
7239;SDS011;3661;53.288;10.458;2023-08-20T04:03:45;1858.53;;;999.90;;
7239;SDS011;3661;53.288;10.458;2023-08-20T04:06:18;1878.75;;;999.90;;
7239;SDS011;3661;53.288;10.458;2023-08-20T04:08:50;1853.82;;;999.90;;
7239;SDS011;3661;53.288;10.458;2023-08-20T04:11:24;1848.00;;;999.90;;
7239;SDS011;3661;53.288;10.458;2023-08-20T04:13:57;1870.50;;;999.90;;
7239;SDS011;3661;53.288;10.458;2023-08-20T04:16:29;1858.10;;;999.90;;
7239;SDS011;3661;53.288;10.458;2023-08-20T04:19:02;1844.67;;;999.90;;
7239;SDS011;3661;53.288;10.458;2023-08-20T04:21:34;1856.53;;;999.90;;
7239;SDS011;3661;53.288;10.458;2023-08-20T04:24:07;1864.97;;;999.90;;
7239;SDS011;3661;53.288;10.458;2023-08-20T04:26:41;1859.23;;;999.90;;
7239;SDS011;3661;53.288;10.458;2023-08-20T04:29:14;1854.85;;;999.90;;
7239;SDS011;3661;53.288;10.458;2023-08-20T04:31:46;1859.35;;;999.90;;
7239;SDS011;3661;53.288;10.458;2023-08-20T04:34:18;1849.32;;;999.90;;
7239;SDS011;3661;53.288;10.458;2023-08-20T04:36:51;1849.90;;;999.90;;
7239;SDS011;3661;53.288;10.458;2023-08-20T04:39:24;1828.53;;;999.90;;
7239;SDS011;3661;53.288;10.458;2023-08-20T04:41:58;1831.90;;;999.90;;
7239;SDS011;3661;53.288;10.458;2023-08-20T04:44:31;1837.35;;;999.90;;
7239;SDS011;3661;53.288;10.458;2023-08-20T04:47:03;1838.40;;;999.90;;
7239;SDS011;3661;53.288;10.458;2023-08-20T04:49:36;1853.10;;;999.90;;
7239;SDS011;3661;53.288;10.458;2023-08-20T04:52:08;1830.77;;;999.90;;
7239;SDS011;3661;53.288;10.458;2023-08-20T04:54:40;1828.55;;;999.90;;
7239;SDS011;3661;53.288;10.458;2023-08-20T04:57:14;1815.78;;;999.90;;
7239;SDS011;3661;53.288;10.458;2023-08-20T04:59:47;1835.15;;;999.90;;
7239;SDS011;3661;53.288;10.458;2023-08-20T05:02:19;1833.13;;;999.90;;
7239;SDS011;3661;53.288;10.458;2023-08-20T05:04:52;1833.33;;;999.90;;
7239;SDS011;3661;53.288;10.458;2023-08-20T05:07:24;1836.80;;;999.90;;
7239;SDS011;3661;53.288;10.458;2023-08-20T05:09:56;1831.90;;;999.90;;
7239;SDS011;3661;53.288;10.458;2023-08-20T05:12:30;1845.07;;;999.90;;
7239;SDS011;3661;53.288;10.458;2023-08-20T05:15:02;1825.80;;;999.90;;
7239;SDS011;3661;53.288;10.458;2023-08-20T05:17:35;1842.82;;;999.90;;
7239;SDS011;3661;53.288;10.458;2023-08-20T05:20:08;1845.97;;;999.90;;
7239;SDS011;3661;53.288;10.458;2023-08-20T05:22:40;1833.77;;;999.90;;
7239;SDS011;3661;53.288;10.458;2023-08-20T05:25:14;1846.50;;;999.90;;
7239;SDS011;3661;53.288;10.458;2023-08-20T05:27:49;1841.28;;;999.90;;
7239;SDS011;3661;53.288;10.458;2023-08-20T05:30:22;1856.70;;;999.90;;
7239;SDS011;3661;53.288;10.458;2023-08-20T05:32:59;1844.05;;;999.90;;
7239;SDS011;3661;53.288;10.458;2023-08-20T05:35:33;1855.25;;;999.90;;
7239;SDS011;3661;53.288;10.458;2023-08-20T05:38:24;1863.28;;;999.90;;
7239;SDS011;3661;53.288;10.458;2023-08-20T05:41:32;1862.70;;;999.90;;
7239;SDS011;3661;53.288;10.458;2023-08-20T05:44:06;1845.82;;;999.90;;
7239;SDS011;3661;53.288;10.458;2023-08-20T05:46:42;1872.20;;;999.90;;
7239;SDS011;3661;53.288;10.458;2023-08-20T05:49:15;1872.43;;;999.90;;
7239;SDS011;3661;53.288;10.458;2023-08-20T05:51:48;1870.38;;;999.90;;
7239;SDS011;3661;53.288;10.458;2023-08-20T05:54:23;1850.78;;;999.90;;
7239;SDS011;3661;53.288;10.458;2023-08-20T05:56:56;1884.55;;;999.90;;
7239;SDS011;3661;53.288;10.458;2023-08-20T05:59:30;1860.68;;;999.90;;
7239;SDS011;3661;53.288;10.458;2023-08-20T06:02:05;1876.15;;;999.90;;
7239;SDS011;3661;53.288;10.458;2023-08-20T06:04:38;1905.95;;;999.90;;
7239;SDS011;3661;53.288;10.458;2023-08-20T06:07:10;1872.78;;;999.90;;
7239;SDS011;3661;53.288;10.458;2023-08-20T06:09:42;1885.22;;;999.90;;
7239;SDS011;3661;53.288;10.458;2023-08-20T06:12:14;1890.22;;;999.90;;
7239;SDS011;3661;53.288;10.458;2023-08-20T06:14:48;1893.25;;;999.90;;
7239;SDS011;3661;53.288;10.458;2023-08-20T06:17:20;1887.65;;;999.90;;
7239;SDS011;3661;53.288;10.458;2023-08-20T06:19:53;1894.05;;;999.90;;
7239;SDS011;3661;53.288;10.458;2023-08-20T06:22:25;1889.70;;;999.90;;
7239;SDS011;3661;53.288;10.458;2023-08-20T06:24:58;1903.60;;;999.90;;
7239;SDS011;3661;53.288;10.458;2023-08-20T06:27:30;1896.90;;;999.90;;
7239;SDS011;3661;53.288;10.458;2023-08-20T06:30:04;1911.80;;;999.90;;
7239;SDS011;3661;53.288;10.458;2023-08-20T06:32:37;1913.85;;;999.90;;
7239;SDS011;3661;53.288;10.458;2023-08-20T06:35:09;1910.00;;;999.90;;
7239;SDS011;3661;53.288;10.458;2023-08-20T06:37:42;1903.05;;;999.90;;
7239;SDS011;3661;53.288;10.458;2023-08-20T06:40:14;1944.47;;;999.90;;
7239;SDS011;3661;53.288;10.458;2023-08-20T06:42:46;1906.83;;;999.90;;
7239;SDS011;3661;53.288;10.458;2023-08-20T06:45:20;1922.85;;;999.90;;
7239;SDS011;3661;53.288;10.458;2023-08-20T06:47:52;1925.32;;;999.90;;
7239;SDS011;3661;53.288;10.458;2023-08-20T06:50:24;1945.35;;;999.90;;
7239;SDS011;3661;53.288;10.458;2023-08-20T06:52:57;1916.87;;;999.90;;
7239;SDS011;3661;53.288;10.458;2023-08-20T06:55:29;1932.47;;;999.90;;
7239;SDS011;3661;53.288;10.458;2023-08-20T06:58:01;1928.38;;;999.90;;
7239;SDS011;3661;53.288;10.458;2023-08-20T07:00:36;1935.13;;;999.90;;
7239;SDS011;3661;53.288;10.458;2023-08-20T07:03:08;1947.28;;;999.90;;
7239;SDS011;3661;53.288;10.458;2023-08-20T07:05:41;1956.03;;;999.90;;
7239;SDS011;3661;53.288;10.458;2023-08-20T07:08:13;1947.85;;;999.90;;
7239;SDS011;3661;53.288;10.458;2023-08-20T07:10:45;1951.68;;;999.90;;
7239;SDS011;3661;53.288;10.458;2023-08-20T07:13:17;1953.38;;;999.90;;
7239;SDS011;3661;53.288;10.458;2023-08-20T07:15:55;1950.05;;;999.90;;
7239;SDS011;3661;53.288;10.458;2023-08-20T07:18:27;1967.68;;;999.90;;
7239;SDS011;3661;53.288;10.458;2023-08-20T07:21:02;1964.95;;;999.90;;
7239;SDS011;3661;53.288;10.458;2023-08-20T07:23:35;1958.35;;;999.90;;
7239;SDS011;3661;53.288;10.458;2023-08-20T07:26:08;1975.68;;;999.90;;
7239;SDS011;3661;53.288;10.458;2023-08-20T07:28:42;1980.03;;;999.90;;
7239;SDS011;3661;53.288;10.458;2023-08-20T07:31:41;1968.35;;;999.90;;
7239;SDS011;3661;53.288;10.458;2023-08-20T07:34:13;1977.57;;;999.90;;
7239;SDS011;3661;53.288;10.458;2023-08-20T07:36:45;1973.35;;;999.90;;
7239;SDS011;3661;53.288;10.458;2023-08-20T07:39:18;1991.05;;;999.90;;
7239;SDS011;3661;53.288;10.458;2023-08-20T07:41:50;1983.47;;;999.90;;
7239;SDS011;3661;53.288;10.458;2023-08-20T07:44:22;1988.35;;;999.90;;
7239;SDS011;3661;53.288;10.458;2023-08-20T07:46:56;1999.90;;;999.90;;
7239;SDS011;3661;53.288;10.458;2023-08-20T07:49:28;1999.60;;;999.90;;
7239;SDS011;3661;53.288;10.458;2023-08-20T07:52:01;1977.30;;;999.90;;
7239;SDS011;3661;53.288;10.458;2023-08-20T07:54:33;1983.53;;;999.90;;
7239;SDS011;3661;53.288;10.458;2023-08-20T07:57:05;1996.47;;;999.90;;
7239;SDS011;3661;53.288;10.458;2023-08-20T07:59:38;1999.90;;;999.90;;
7239;SDS011;3661;53.288;10.458;2023-08-20T08:02:11;1996.40;;;999.90;;
7239;SDS011;3661;53.288;10.458;2023-08-20T08:04:44;1997.63;;;999.90;;
7239;SDS011;3661;53.288;10.458;2023-08-20T08:07:16;1999.90;;;999.90;;
7239;SDS011;3661;53.288;10.458;2023-08-20T08:09:48;1999.90;;;999.90;;
7239;SDS011;3661;53.288;10.458;2023-08-20T08:12:20;1999.90;;;999.90;;
7239;SDS011;3661;53.288;10.458;2023-08-20T08:14:52;1999.90;;;999.90;;
7239;SDS011;3661;53.288;10.458;2023-08-20T08:17:26;1999.90;;;999.90;;
7239;SDS011;3661;53.288;10.458;2023-08-20T08:19:58;1999.90;;;999.90;;
7239;SDS011;3661;53.288;10.458;2023-08-20T08:22:31;1999.90;;;999.90;;
7239;SDS011;3661;53.288;10.458;2023-08-20T08:25:03;1999.90;;;999.90;;
7239;SDS011;3661;53.288;10.458;2023-08-20T08:27:36;1999.90;;;999.90;;
7239;SDS011;3661;53.288;10.458;2023-08-20T08:30:09;1999.90;;;999.90;;
7239;SDS011;3661;53.288;10.458;2023-08-20T08:32:43;1999.90;;;999.90;;
7239;SDS011;3661;53.288;10.458;2023-08-20T08:35:22;1999.90;;;999.90;;
7239;SDS011;3661;53.288;10.458;2023-08-20T08:38:05;1999.90;;;999.90;;
7239;SDS011;3661;53.288;10.458;2023-08-20T08:40:43;1999.90;;;999.90;;
7239;SDS011;3661;53.288;10.458;2023-08-20T08:43:16;1999.90;;;999.90;;
7239;SDS011;3661;53.288;10.458;2023-08-20T08:45:49;1999.90;;;999.90;;
7239;SDS011;3661;53.288;10.458;2023-08-20T08:48:24;1999.90;;;999.90;;
7239;SDS011;3661;53.288;10.458;2023-08-20T08:50:57;1999.90;;;999.90;;
7239;SDS011;3661;53.288;10.458;2023-08-20T08:53:30;1999.90;;;999.90;;
7239;SDS011;3661;53.288;10.458;2023-08-20T08:56:04;1999.90;;;999.90;;
7239;SDS011;3661;53.288;10.458;2023-08-20T08:58:36;1999.90;;;999.90;;
7239;SDS011;3661;53.288;10.458;2023-08-20T09:01:08;1999.90;;;999.90;;
7239;SDS011;3661;53.288;10.458;2023-08-20T09:03:42;1999.90;;;999.90;;
7239;SDS011;3661;53.288;10.458;2023-08-20T09:06:14;1999.90;;;999.90;;
7239;SDS011;3661;53.288;10.458;2023-08-20T09:08:46;1999.90;;;999.90;;
7239;SDS011;3661;53.288;10.458;2023-08-20T09:11:19;1999.90;;;999.90;;
7239;SDS011;3661;53.288;10.458;2023-08-20T09:13:54;1999.90;;;999.90;;
7239;SDS011;3661;53.288;10.458;2023-08-20T09:16:26;1999.90;;;999.90;;
7239;SDS011;3661;53.288;10.458;2023-08-20T09:19:03;1999.90;;;999.90;;
7239;SDS011;3661;53.288;10.458;2023-08-20T09:21:35;1999.90;;;999.90;;
7239;SDS011;3661;53.288;10.458;2023-08-20T09:24:07;1999.90;;;999.90;;
7239;SDS011;3661;53.288;10.458;2023-08-20T09:26:39;1999.90;;;999.90;;
7239;SDS011;3661;53.288;10.458;2023-08-20T09:29:16;1999.90;;;999.90;;
7239;SDS011;3661;53.288;10.458;2023-08-20T09:31:49;1999.90;;;999.90;;
7239;SDS011;3661;53.288;10.458;2023-08-20T09:34:22;1999.90;;;999.90;;
7239;SDS011;3661;53.288;10.458;2023-08-20T09:36:54;1999.90;;;999.90;;
7239;SDS011;3661;53.288;10.458;2023-08-20T09:39:27;1999.90;;;999.90;;
7239;SDS011;3661;53.288;10.458;2023-08-20T09:41:59;1999.90;;;999.90;;
7239;SDS011;3661;53.288;10.458;2023-08-20T09:44:34;1999.90;;;999.90;;
7239;SDS011;3661;53.288;10.458;2023-08-20T09:47:07;1999.90;;;999.90;;
7239;SDS011;3661;53.288;10.458;2023-08-20T09:49:42;1999.90;;;999.90;;
7239;SDS011;3661;53.288;10.458;2023-08-20T09:52:15;1999.90;;;999.90;;
7239;SDS011;3661;53.288;10.458;2023-08-20T09:54:55;1999.90;;;999.90;;
7239;SDS011;3661;53.288;10.458;2023-08-20T09:57:32;1999.90;;;999.90;;
7239;SDS011;3661;53.288;10.458;2023-08-20T10:00:10;1999.90;;;999.90;;
7239;SDS011;3661;53.288;10.458;2023-08-20T10:02:43;1999.90;;;999.90;;
7239;SDS011;3661;53.288;10.458;2023-08-20T10:05:17;1999.90;;;999.90;;
7239;SDS011;3661;53.288;10.458;2023-08-20T10:07:51;1999.90;;;999.90;;
7239;SDS011;3661;53.288;10.458;2023-08-20T10:10:23;1999.90;;;999.90;;
7239;SDS011;3661;53.288;10.458;2023-08-20T10:12:57;1999.90;;;999.90;;
7239;SDS011;3661;53.288;10.458;2023-08-20T10:15:33;1999.90;;;999.90;;
7239;SDS011;3661;53.288;10.458;2023-08-20T10:18:08;1999.90;;;999.90;;
7239;SDS011;3661;53.288;10.458;2023-08-20T10:20:42;1999.90;;;999.90;;
7239;SDS011;3661;53.288;10.458;2023-08-20T10:23:15;1999.90;;;999.90;;
7239;SDS011;3661;53.288;10.458;2023-08-20T10:25:55;1999.90;;;999.90;;
7239;SDS011;3661;53.288;10.458;2023-08-20T10:28:39;1999.90;;;999.90;;
7239;SDS011;3661;53.288;10.458;2023-08-20T10:31:12;1999.90;;;999.90;;
7239;SDS011;3661;53.288;10.458;2023-08-20T10:33:54;1999.90;;;999.90;;
7239;SDS011;3661;53.288;10.458;2023-08-20T10:36:28;1999.90;;;999.90;;
7239;SDS011;3661;53.288;10.458;2023-08-20T10:39:03;1999.90;;;999.90;;
7239;SDS011;3661;53.288;10.458;2023-08-20T10:41:37;1999.90;;;999.90;;
7239;SDS011;3661;53.288;10.458;2023-08-20T10:44:09;1999.90;;;999.90;;
7239;SDS011;3661;53.288;10.458;2023-08-20T10:46:49;1999.90;;;999.90;;
7239;SDS011;3661;53.288;10.458;2023-08-20T10:49:22;1999.90;;;999.90;;
7239;SDS011;3661;53.288;10.458;2023-08-20T10:51:55;1999.90;;;999.90;;
7239;SDS011;3661;53.288;10.458;2023-08-20T10:54:33;1999.90;;;999.90;;
7239;SDS011;3661;53.288;10.458;2023-08-20T10:57:06;1999.90;;;999.90;;
7239;SDS011;3661;53.288;10.458;2023-08-20T10:59:40;1999.90;;;999.90;;
7239;SDS011;3661;53.288;10.458;2023-08-20T11:02:13;1999.90;;;999.90;;
7239;SDS011;3661;53.288;10.458;2023-08-20T11:04:49;1999.90;;;999.90;;
7239;SDS011;3661;53.288;10.458;2023-08-20T11:07:23;1999.90;;;999.90;;
7239;SDS011;3661;53.288;10.458;2023-08-20T11:09:57;1999.90;;;999.90;;
7239;SDS011;3661;53.288;10.458;2023-08-20T11:12:29;1999.90;;;999.90;;
7239;SDS011;3661;53.288;10.458;2023-08-20T11:15:02;1999.90;;;999.90;;
7239;SDS011;3661;53.288;10.458;2023-08-20T11:17:34;1999.90;;;999.90;;
7239;SDS011;3661;53.288;10.458;2023-08-20T11:20:11;1999.90;;;999.90;;
7239;SDS011;3661;53.288;10.458;2023-08-20T11:22:46;1999.90;;;999.90;;
7239;SDS011;3661;53.288;10.458;2023-08-20T11:25:20;1999.90;;;999.90;;
7239;SDS011;3661;53.288;10.458;2023-08-20T11:27:52;1999.90;;;999.90;;
7239;SDS011;3661;53.288;10.458;2023-08-20T11:30:26;1999.90;;;999.90;;
7239;SDS011;3661;53.288;10.458;2023-08-20T11:33:01;1999.90;;;999.90;;
7239;SDS011;3661;53.288;10.458;2023-08-20T11:35:37;1999.90;;;999.90;;
7239;SDS011;3661;53.288;10.458;2023-08-20T11:38:10;1999.90;;;999.90;;
7239;SDS011;3661;53.288;10.458;2023-08-20T11:40:43;1999.90;;;999.90;;
7239;SDS011;3661;53.288;10.458;2023-08-20T11:43:15;1999.90;;;999.90;;
7239;SDS011;3661;53.288;10.458;2023-08-20T11:45:48;1999.90;;;999.90;;
7239;SDS011;3661;53.288;10.458;2023-08-20T11:48:21;1999.90;;;999.90;;
7239;SDS011;3661;53.288;10.458;2023-08-20T11:50:56;1999.90;;;999.90;;
7239;SDS011;3661;53.288;10.458;2023-08-20T11:53:31;1999.90;;;999.90;;
7239;SDS011;3661;53.288;10.458;2023-08-20T11:56:03;1999.90;;;999.90;;
7239;SDS011;3661;53.288;10.458;2023-08-20T11:58:35;1999.90;;;999.90;;
7239;SDS011;3661;53.288;10.458;2023-08-20T12:01:15;1999.90;;;999.90;;
7239;SDS011;3661;53.288;10.458;2023-08-20T12:03:48;1999.90;;;999.90;;
7239;SDS011;3661;53.288;10.458;2023-08-20T12:06:21;1999.90;;;999.90;;
7239;SDS011;3661;53.288;10.458;2023-08-20T12:08:55;1999.90;;;999.90;;
7239;SDS011;3661;53.288;10.458;2023-08-20T12:11:28;1999.90;;;999.90;;
7239;SDS011;3661;53.288;10.458;2023-08-20T12:14:00;1999.90;;;999.90;;
7239;SDS011;3661;53.288;10.458;2023-08-20T12:16:33;1999.90;;;999.90;;
7239;SDS011;3661;53.288;10.458;2023-08-20T12:19:05;1999.90;;;999.90;;
7239;SDS011;3661;53.288;10.458;2023-08-20T12:21:39;1999.90;;;999.90;;
7239;SDS011;3661;53.288;10.458;2023-08-20T12:24:14;1999.90;;;999.90;;
7239;SDS011;3661;53.288;10.458;2023-08-20T12:26:47;1999.90;;;999.90;;
7239;SDS011;3661;53.288;10.458;2023-08-20T12:29:19;1999.90;;;999.90;;
7239;SDS011;3661;53.288;10.458;2023-08-20T12:31:51;1999.90;;;999.90;;
7239;SDS011;3661;53.288;10.458;2023-08-20T12:34:23;1999.90;;;999.90;;
7239;SDS011;3661;53.288;10.458;2023-08-20T12:36:56;1999.90;;;999.90;;
7239;SDS011;3661;53.288;10.458;2023-08-20T12:39:31;1999.90;;;999.90;;
7239;SDS011;3661;53.288;10.458;2023-08-20T12:42:03;1999.90;;;999.90;;
7239;SDS011;3661;53.288;10.458;2023-08-20T12:44:36;1999.90;;;999.90;;
7239;SDS011;3661;53.288;10.458;2023-08-20T12:47:08;1999.90;;;999.90;;
7239;SDS011;3661;53.288;10.458;2023-08-20T12:49:40;1999.90;;;999.90;;
7239;SDS011;3661;53.288;10.458;2023-08-20T12:52:13;1999.90;;;999.90;;
7239;SDS011;3661;53.288;10.458;2023-08-20T12:54:47;1999.90;;;999.90;;
7239;SDS011;3661;53.288;10.458;2023-08-20T12:57:20;1999.90;;;999.90;;
7239;SDS011;3661;53.288;10.458;2023-08-20T12:59:52;1999.90;;;999.90;;
7239;SDS011;3661;53.288;10.458;2023-08-20T13:02:24;1999.90;;;999.90;;
7239;SDS011;3661;53.288;10.458;2023-08-20T13:04:57;1999.90;;;999.90;;
7239;SDS011;3661;53.288;10.458;2023-08-20T13:07:29;1999.90;;;999.90;;
7239;SDS011;3661;53.288;10.458;2023-08-20T13:10:04;1999.90;;;999.90;;
7239;SDS011;3661;53.288;10.458;2023-08-20T13:12:38;1999.90;;;999.90;;
7239;SDS011;3661;53.288;10.458;2023-08-20T13:15:12;1999.90;;;999.90;;
7239;SDS011;3661;53.288;10.458;2023-08-20T13:17:46;1999.90;;;999.90;;
7239;SDS011;3661;53.288;10.458;2023-08-20T13:20:20;1999.90;;;999.90;;
7239;SDS011;3661;53.288;10.458;2023-08-20T13:22:53;1999.90;;;999.90;;
7239;SDS011;3661;53.288;10.458;2023-08-20T13:25:27;1999.90;;;999.90;;
7239;SDS011;3661;53.288;10.458;2023-08-20T13:27:59;1999.90;;;999.90;;
7239;SDS011;3661;53.288;10.458;2023-08-20T13:30:31;1999.90;;;999.90;;
7239;SDS011;3661;53.288;10.458;2023-08-20T13:33:03;1999.90;;;999.90;;
7239;SDS011;3661;53.288;10.458;2023-08-20T13:35:36;1999.90;;;999.90;;
7239;SDS011;3661;53.288;10.458;2023-08-20T13:38:08;1999.90;;;999.90;;
7239;SDS011;3661;53.288;10.458;2023-08-20T13:40:41;1999.90;;;999.90;;
7239;SDS011;3661;53.288;10.458;2023-08-20T13:43:14;1999.90;;;999.90;;
7239;SDS011;3661;53.288;10.458;2023-08-20T13:45:46;1999.90;;;999.90;;
7239;SDS011;3661;53.288;10.458;2023-08-20T13:48:18;1999.90;;;999.90;;
7239;SDS011;3661;53.288;10.458;2023-08-20T13:50:50;1999.90;;;999.90;;
7239;SDS011;3661;53.288;10.458;2023-08-20T13:53:22;1999.90;;;999.90;;
7239;SDS011;3661;53.288;10.458;2023-08-20T13:55:56;1999.90;;;999.90;;
7239;SDS011;3661;53.288;10.458;2023-08-20T13:58:28;1999.90;;;999.90;;
7239;SDS011;3661;53.288;10.458;2023-08-20T14:01:00;1999.90;;;999.90;;
7239;SDS011;3661;53.288;10.458;2023-08-20T14:03:33;1999.90;;;999.90;;
7239;SDS011;3661;53.288;10.458;2023-08-20T14:06:05;1999.90;;;999.90;;
7239;SDS011;3661;53.288;10.458;2023-08-20T14:08:37;1999.90;;;999.90;;
7239;SDS011;3661;53.288;10.458;2023-08-20T14:11:11;1999.90;;;999.90;;
7239;SDS011;3661;53.288;10.458;2023-08-20T14:13:45;1999.90;;;999.90;;
7239;SDS011;3661;53.288;10.458;2023-08-20T14:16:18;1999.90;;;999.90;;
7239;SDS011;3661;53.288;10.458;2023-08-20T14:18:50;1999.90;;;999.90;;
7239;SDS011;3661;53.288;10.458;2023-08-20T14:21:22;1999.90;;;999.90;;
7239;SDS011;3661;53.288;10.458;2023-08-20T14:23:54;1999.90;;;999.90;;
7239;SDS011;3661;53.288;10.458;2023-08-20T14:26:28;1999.90;;;999.90;;
7239;SDS011;3661;53.288;10.458;2023-08-20T14:29:00;1999.90;;;999.90;;
7239;SDS011;3661;53.288;10.458;2023-08-20T14:31:33;1999.90;;;999.90;;
7239;SDS011;3661;53.288;10.458;2023-08-20T14:34:05;1999.90;;;999.90;;
7239;SDS011;3661;53.288;10.458;2023-08-20T14:36:37;1999.90;;;999.90;;
7239;SDS011;3661;53.288;10.458;2023-08-20T14:39:12;1999.90;;;999.90;;
7239;SDS011;3661;53.288;10.458;2023-08-20T14:41:46;1999.90;;;999.90;;
7239;SDS011;3661;53.288;10.458;2023-08-20T14:44:19;1999.90;;;999.90;;